Time,TemperatureF,DewpointF,PressureIn,WindDirection,WindDirectionDegrees,WindSpeedMPH,WindSpeedGustMPH,Humidity,HourlyPrecipIn,Conditions,Clouds,dailyrainin,SolarRadiationWatts/m^2,SoftwareType,DateUTC
2013-11-03 00:03:00,51.6,46.0,29.96,NNE,12,2.0,5.0,82,0.00,,,0.00,0,weatherlink.com 1.10,2013-11-03 07:03:00,
2013-11-03 00:18:00,52.8,45.0,29.96,NNE,12,0.0,5.0,75,0.00,,,0.00,0,weatherlink.com 1.10,2013-11-03 07:18:00,
2013-11-03 00:33:00,53.6,44.0,29.96,NNE,24,1.0,6.0,71,0.00,,,0.00,0,weatherlink.com 1.10,2013-11-03 07:33:00,
2013-11-03 00:48:00,53.5,44.0,29.97,North,355,2.0,4.0,70,0.00,,,0.00,0,weatherlink.com 1.10,2013-11-03 07:48:00,
2013-11-03 01:03:00,53.4,44.0,29.97,North,9,1.0,5.0,70,0.00,,,0.00,0,weatherlink.com 1.10,2013-11-03 08:03:00,
2013-11-03 01:18:00,53.1,44.0,29.97,North,5,0.0,4.0,70,0.00,,,0.00,0,weatherlink.com 1.10,2013-11-03 08:18:00,
2013-11-03 01:33:00,52.9,43.0,29.97,NE,40,0.0,3.0,70,0.00,,,0.00,0,weatherlink.com 1.10,2013-11-03 08:33:00,
2013-11-03 01:48:00,52.6,43.0,29.98,NNE,20,0.0,5.0,70,0.00,,,0.00,0,weatherlink.com 1.10,2013-11-03 08:48:00,
2013-11-03 01:03:00,51.8,43.0,29.98,North,9,0.0,3.0,72,0.00,,,0.00,0,weatherlink.com 1.10,2013-11-03 09:03:00,
2013-11-03 01:18:00,51.1,43.0,29.98,NNE,14,0.0,1.0,73,0.00,,,0.00,0,weatherlink.com 1.10,2013-11-03 09:18:00,
2013-11-03 01:33:00,50.8,42.0,29.98,NNE,16,0.0,2.0,73,0.00,,,0.00,0,weatherlink.com 1.10,2013-11-03 09:33:00,
2013-11-03 01:48:00,50.1,42.0,29.98,NE,40,0.0,1.0,74,0.00,,,0.00,0,weatherlink.com 1.10,2013-11-03 09:48:00,
2013-11-03 02:03:00,49.5,42.0,29.98,NE,37,0.0,1.0,75,0.00,,,0.00,0,weatherlink.com 1.10,2013-11-03 10:03:00,
2013-11-03 02:18:00,48.9,42.0,29.98,NE,37,0.0,1.0,76,0.00,,,0.00,0,weatherlink.com 1.10,2013-11-03 10:18:00,
2013-11-03 02:33:00,48.5,42.0,29.98,NE,36,0.0,0.0,77,0.00,,,0.00,0,weatherlink.com 1.10,2013-11-03 10:33:00,
2013-11-03 02:48:00,48.4,41.0,29.98,NNE,30,0.0,2.0,76,0.00,,,0.00,0,weatherlink.com 1.10,2013-11-03 10:48:00,
2013-11-03 03:03:00,48.7,41.0,29.98,North,9,0.0,3.0,75,0.00,,,0.00,0,weatherlink.com 1.10,2013-11-03 11:03:00,
2013-11-03 03:18:00,49.6,41.0,29.98,NNE,18,0.0,4.0,72,0.00,,,0.00,0,weatherlink.com 1.10,2013-11-03 11:18:00,
2013-11-03 03:33:00,49.7,41.0,29.99,NNE,25,0.0,2.0,71,0.00,,,0.00,0,weatherlink.com 1.10,2013-11-03 11:33:00,
2013-11-03 03:48:00,49.6,41.0,29.99,NNE,18,0.0,4.0,71,0.00,,,0.00,0,weatherlink.com 1.10,2013-11-03 11:48:00,
2013-11-03 04:03:00,49.5,40.0,29.99,North,360,0.0,6.0,70,0.00,,,0.00,0,weatherlink.com 1.10,2013-11-03 12:03:00,
2013-11-03 04:18:00,49.4,40.0,30.00,NNE,17,1.0,4.0,70,0.00,,,0.00,0,weatherlink.com 1.10,2013-11-03 12:18:00,
2013-11-03 04:33:00,49.1,40.0,30.00,North,5,1.0,5.0,72,0.00,,,0.00,0,weatherlink.com 1.10,2013-11-03 12:33:00,
2013-11-03 04:48:00,49.3,40.0,30.00,North,9,0.0,7.0,71,0.00,,,0.00,0,weatherlink.com 1.10,2013-11-03 12:48:00,
2013-11-03 05:03:00,49.3,40.0,30.01,NNE,28,1.0,5.0,71,0.00,,,0.00,0,weatherlink.com 1.10,2013-11-03 13:03:00,
2013-11-03 05:19:00,49.1,40.0,30.01,NNE,31,0.0,6.0,72,0.00,,,0.00,0,weatherlink.com 1.10,2013-11-03 13:19:00,
2013-11-03 05:34:00,48.9,40.0,30.01,NNE,21,0.0,4.0,72,0.00,,,0.00,0,weatherlink.com 1.10,2013-11-03 13:34:00,
2013-11-03 05:49:00,48.5,40.0,30.01,North,360,0.0,5.0,73,0.00,,,0.00,0,weatherlink.com 1.10,2013-11-03 13:49:00,
2013-11-03 06:04:00,48.2,40.0,30.02,NNE,24,0.0,5.0,73,0.00,,,0.00,0,weatherlink.com 1.10,2013-11-03 14:04:00,
2013-11-03 06:19:00,48.0,40.0,30.02,North,5,2.0,4.0,73,0.00,,,0.00,0,weatherlink.com 1.10,2013-11-03 14:19:00,
2013-11-03 06:34:00,47.8,39.0,30.02,NNE,18,0.0,5.0,72,0.00,,,0.00,0,weatherlink.com 1.10,2013-11-03 14:34:00,
2013-11-03 06:49:00,47.6,39.0,30.02,North,355,0.0,4.0,72,0.00,,,0.00,9,weatherlink.com 1.10,2013-11-03 14:49:00,
2013-11-03 07:04:00,47.6,39.0,30.03,NNE,31,1.0,4.0,71,0.00,,,0.00,16,weatherlink.com 1.10,2013-11-03 15:04:00,
2013-11-03 07:19:00,47.7,38.0,30.03,NNE,15,2.0,4.0,70,0.00,,,0.00,54,weatherlink.com 1.10,2013-11-03 15:19:00,
2013-11-03 07:34:00,49.5,39.0,30.04,NNE,22,0.0,4.0,68,0.00,,,0.00,123,weatherlink.com 1.10,2013-11-03 15:34:00,
2013-11-03 07:49:00,51.7,41.0,30.04,NNE,20,0.0,2.0,66,0.00,,,0.00,179,weatherlink.com 1.10,2013-11-03 15:49:00,
2013-11-03 08:04:00,53.6,40.0,30.04,NNE,28,0.0,2.0,61,0.00,,,0.00,236,weatherlink.com 1.10,2013-11-03 16:04:00,
2013-11-03 08:19:00,54.2,39.0,30.04,North,360,1.0,5.0,57,0.00,,,0.00,283,weatherlink.com 1.10,2013-11-03 16:19:00,
2013-11-03 08:34:00,54.6,39.0,30.05,North,350,1.0,6.0,56,0.00,,,0.00,315,weatherlink.com 1.10,2013-11-03 16:34:00,
2013-11-03 08:49:00,55.4,39.0,30.05,North,350,2.0,5.0,55,0.00,,,0.00,371,weatherlink.com 1.10,2013-11-03 16:49:00,
2013-11-03 09:04:00,56.9,40.0,30.05,NNE,13,1.0,4.0,53,0.00,,,0.00,397,weatherlink.com 1.10,2013-11-03 17:04:00,
2013-11-03 09:19:00,56.9,39.0,30.05,North,5,0.0,5.0,51,0.00,,,0.00,381,weatherlink.com 1.10,2013-11-03 17:19:00,
2013-11-03 09:34:00,57.9,38.0,30.05,NNE,18,2.0,6.0,48,0.00,,,0.00,483,weatherlink.com 1.10,2013-11-03 17:34:00,
2013-11-03 09:49:00,58.8,38.0,30.05,North,5,1.0,5.0,46,0.00,,,0.00,411,weatherlink.com 1.10,2013-11-03 17:49:00,
2013-11-03 10:04:00,59.0,39.0,30.05,NNE,19,2.0,4.0,47,0.00,,,0.00,415,weatherlink.com 1.10,2013-11-03 18:04:00,
2013-11-03 10:20:00,59.7,39.0,30.05,North,5,2.0,5.0,47,0.00,,,0.00,613,weatherlink.com 1.10,2013-11-03 18:20:00,
2013-11-03 10:35:00,61.2,37.0,30.05,North,9,2.0,4.0,40,0.00,,,0.00,497,weatherlink.com 1.10,2013-11-03 18:35:00,
2013-11-03 10:50:00,61.1,37.0,30.05,NNE,21,1.0,5.0,41,0.00,,,0.00,499,weatherlink.com 1.10,2013-11-03 18:50:00,
2013-11-03 11:05:00,61.1,36.0,30.04,North,11,1.0,4.0,39,0.00,,,0.00,397,weatherlink.com 1.10,2013-11-03 19:05:00,
2013-11-03 11:20:00,61.1,36.0,30.04,North,355,0.0,3.0,40,0.00,,,0.00,341,weatherlink.com 1.10,2013-11-03 19:20:00,
2013-11-03 11:35:00,61.8,34.0,30.03,NNE,26,0.0,4.0,36,0.00,,,0.00,501,weatherlink.com 1.10,2013-11-03 19:35:00,
2013-11-03 11:50:00,63.2,34.0,30.03,NNE,18,0.0,3.0,34,0.00,,,0.00,606,weatherlink.com 1.10,2013-11-03 19:50:00,
2013-11-03 12:05:00,64.6,35.0,30.02,West,259,0.0,3.0,34,0.00,,,0.00,606,weatherlink.com 1.10,2013-11-03 20:05:00,
2013-11-03 12:20:00,66.1,34.0,30.00,North,350,1.0,3.0,30,0.00,,,0.00,401,weatherlink.com 1.10,2013-11-03 20:20:00,
2013-11-03 12:35:00,65.0,40.0,29.99,South,182,1.0,3.0,40,0.00,,,0.00,452,weatherlink.com 1.10,2013-11-03 20:35:00,
2013-11-03 12:50:00,63.2,37.0,29.99,South,188,1.0,3.0,38,0.00,,,0.00,380,weatherlink.com 1.10,2013-11-03 20:50:00,
2013-11-03 13:05:00,63.5,39.0,29.98,WSW,238,1.0,4.0,41,0.00,,,0.00,494,weatherlink.com 1.10,2013-11-03 21:05:00,
2013-11-03 13:20:00,63.0,38.0,29.98,SW,227,1.0,4.0,40,0.00,,,0.00,424,weatherlink.com 1.10,2013-11-03 21:20:00,
2013-11-03 13:35:00,61.9,38.0,29.97,South,187,1.0,4.0,42,0.00,,,0.00,489,weatherlink.com 1.10,2013-11-03 21:35:00,
2013-11-03 13:50:00,61.6,36.0,29.97,South,174,1.0,4.0,39,0.00,,,0.00,355,weatherlink.com 1.10,2013-11-03 21:50:00,
2013-11-03 14:05:00,61.8,38.0,29.96,SSE,167,2.0,4.0,42,0.00,,,0.00,420,weatherlink.com 1.10,2013-11-03 22:05:00,
2013-11-03 14:20:00,62.9,37.0,29.96,SSE,150,1.0,4.0,38,0.00,,,0.00,417,weatherlink.com 1.10,2013-11-03 22:20:00,
2013-11-03 14:35:00,63.8,37.0,29.96,South,174,2.0,5.0,37,0.00,,,0.00,378,weatherlink.com 1.10,2013-11-03 22:35:00,
2013-11-03 14:50:00,62.9,36.0,29.95,SSE,167,5.0,5.0,37,0.00,,,0.00,301,weatherlink.com 1.10,2013-11-03 22:50:00,
2013-11-03 15:05:00,62.1,37.0,29.95,SSE,165,1.0,5.0,40,0.00,,,0.00,257,weatherlink.com 1.10,2013-11-03 23:05:00,
2013-11-03 15:20:00,61.6,40.0,29.95,SSE,165,3.0,5.0,45,0.00,,,0.00,149,weatherlink.com 1.10,2013-11-03 23:20:00,
2013-11-03 15:35:00,60.4,41.0,29.95,SSE,161,1.0,5.0,49,0.00,,,0.00,102,weatherlink.com 1.10,2013-11-03 23:35:00,
2013-11-03 15:50:00,59.7,44.0,29.94,SE,134,4.0,6.0,56,0.00,,,0.00,70,weatherlink.com 1.10,2013-11-03 23:50:00,
2013-11-03 16:05:00,58.9,43.0,29.93,SSE,167,2.0,6.0,56,0.00,,,0.00,51,weatherlink.com 1.10,2013-11-04 00:05:00,
2013-11-03 16:20:00,58.9,42.0,29.94,SSE,150,2.0,5.0,53,0.00,,,0.00,54,weatherlink.com 1.10,2013-11-04 00:20:00,
2013-11-03 16:35:00,58.8,41.0,29.93,SE,143,1.0,4.0,52,0.00,,,0.00,26,weatherlink.com 1.10,2013-11-04 00:35:00,
2013-11-03 16:50:00,58.5,41.0,29.93,SSE,163,2.0,5.0,52,0.00,,,0.00,16,weatherlink.com 1.10,2013-11-04 00:50:00,
2013-11-03 17:05:00,58.0,41.0,29.93,SSE,151,1.0,4.0,54,0.00,,,0.00,0,weatherlink.com 1.10,2013-11-04 01:05:00,
2013-11-03 17:20:00,57.6,41.0,29.93,SE,145,1.0,5.0,55,0.00,,,0.00,0,weatherlink.com 1.10,2013-11-04 01:20:00,
2013-11-03 17:35:00,57.3,42.0,29.94,SSE,158,0.0,3.0,58,0.00,,,0.00,0,weatherlink.com 1.10,2013-11-04 01:35:00,
2013-11-03 17:50:00,56.6,43.0,29.94,SSE,158,0.0,2.0,60,0.00,,,0.00,0,weatherlink.com 1.10,2013-11-04 01:50:00,
2013-11-03 18:05:00,55.8,43.0,29.93,SSE,152,0.0,2.0,62,0.00,,,0.00,0,weatherlink.com 1.10,2013-11-04 02:05:00,
2013-11-03 18:20:00,55.1,42.0,29.92,SSE,152,0.0,0.0,62,0.00,,,0.00,0,weatherlink.com 1.10,2013-11-04 02:20:00,
2013-11-03 18:35:00,54.5,42.0,29.92,SSE,152,0.0,0.0,63,0.00,,,0.00,0,weatherlink.com 1.10,2013-11-04 02:35:00,
2013-11-03 18:50:00,54.1,40.0,29.93,SSE,151,0.0,1.0,59,0.00,,,0.00,0,weatherlink.com 1.10,2013-11-04 02:50:00,
2013-11-03 19:05:00,53.8,40.0,29.92,SSE,151,0.0,0.0,60,0.00,,,0.00,0,weatherlink.com 1.10,2013-11-04 03:05:00,
2013-11-03 19:20:00,53.5,40.0,29.93,SSE,151,0.0,1.0,61,0.00,,,0.00,0,weatherlink.com 1.10,2013-11-04 03:20:00,
2013-11-03 19:35:00,53.6,40.0,29.93,North,9,2.0,3.0,61,0.00,,,0.00,0,weatherlink.com 1.10,2013-11-04 03:35:00,
2013-11-03 19:50:00,53.7,40.0,29.93,North,11,0.0,3.0,60,0.00,,,0.00,0,weatherlink.com 1.10,2013-11-04 03:50:00,
2013-11-03 20:05:00,53.5,40.0,29.93,NNE,17,0.0,2.0,60,0.00,,,0.00,0,weatherlink.com 1.10,2013-11-04 04:05:00,
2013-11-03 20:20:00,53.1,41.0,29.93,NNE,30,0.0,3.0,63,0.00,,,0.00,0,weatherlink.com 1.10,2013-11-04 04:20:00,
2013-11-03 20:35:00,52.7,41.0,29.93,North,5,1.0,3.0,64,0.00,,,0.00,0,weatherlink.com 1.10,2013-11-04 04:35:00,
2013-11-03 20:50:00,52.5,41.0,29.93,NNW,348,0.0,3.0,65,0.00,,,0.00,0,weatherlink.com 1.10,2013-11-04 04:50:00,
2013-11-03 21:05:00,52.4,40.0,29.93,NNE,28,0.0,3.0,64,0.00,,,0.00,0,weatherlink.com 1.10,2013-11-04 05:05:00,
2013-11-03 21:20:00,52.0,40.0,29.94,North,11,0.0,2.0,65,0.00,,,0.00,0,weatherlink.com 1.10,2013-11-04 05:20:00,
2013-11-03 21:35:00,51.8,40.0,29.94,North,11,0.0,5.0,65,0.00,,,0.00,0,weatherlink.com 1.10,2013-11-04 05:35:00,
2013-11-03 21:50:00,51.7,40.0,29.95,NNE,15,0.0,3.0,65,0.00,,,0.00,0,weatherlink.com 1.10,2013-11-04 05:50:00,
2013-11-03 22:05:00,51.3,40.0,29.94,NNE,12,0.0,3.0,65,0.00,,,0.00,0,weatherlink.com 1.10,2013-11-04 06:05:00,
2013-11-03 22:20:00,50.8,40.0,29.94,North,11,0.0,2.0,66,0.00,,,0.00,0,weatherlink.com 1.10,2013-11-04 06:20:00,
2013-11-03 22:35:00,50.1,40.0,29.94,North,11,0.0,1.0,68,0.00,,,0.00,0,weatherlink.com 1.10,2013-11-04 06:35:00,
2013-11-03 22:50:00,49.6,40.0,29.94,North,10,0.0,3.0,69,0.00,,,0.00,0,weatherlink.com 1.10,2013-11-04 06:50:00,
2013-11-03 23:05:00,49.6,40.0,29.94,North,11,2.0,4.0,69,0.00,,,0.00,0,weatherlink.com 1.10,2013-11-04 07:05:00,
2013-11-03 23:20:00,49.9,40.0,29.93,North,5,0.0,4.0,69,0.00,,,0.00,0,weatherlink.com 1.10,2013-11-04 07:20:00,
2013-11-03 23:35:00,50.0,40.0,29.93,NNE,17,1.0,4.0,68,0.00,,,0.00,0,weatherlink.com 1.10,2013-11-04 07:35:00,
2013-11-03 23:50:00,49.6,40.0,29.93,NNE,18,0.0,1.0,69,0.00,,,0.00,0,weatherlink.com 1.10,2013-11-04 07:50:00,